createdAt,value
2018-09-14T00:00:01.733Z,10.20
2018-09-14T00:02:40.568Z,10.20
2018-09-14T00:05:09.408Z,10.20
2018-09-14T00:07:38.799Z,10.10
2018-09-14T00:10:19.260Z,10.10
2018-09-14T00:13:05.044Z,10.10
2018-09-14T00:15:35.632Z,10.00
2018-09-14T00:18:06.205Z,10.00
2018-09-14T00:20:36.707Z,10.00
2018-09-14T00:23:23.788Z,9.90
2018-09-14T00:26:08.152Z,9.90
2018-09-14T00:28:40.816Z,9.90
2018-09-14T00:31:10.469Z,9.90
2018-09-14T00:33:40.027Z,9.80
2018-09-14T00:36:09.717Z,9.80
2018-09-14T00:38:40.182Z,9.90
2018-09-14T00:41:11.969Z,9.80
2018-09-14T00:43:40.592Z,9.80
2018-09-14T00:46:16.669Z,9.70
2018-09-14T00:49:08.731Z,9.70
2018-09-14T00:51:53.351Z,9.70
2018-09-14T00:54:33.425Z,9.80
2018-09-14T00:57:01.813Z,9.70
2018-09-14T00:59:30.187Z,9.70
2018-09-14T01:02:02.261Z,9.70
2018-09-14T01:04:42.887Z,9.60
2018-09-14T01:07:13.451Z,9.60
2018-09-14T01:09:45.535Z,9.70
2018-09-14T01:12:18.527Z,9.60
2018-09-14T01:14:53.629Z,9.60
2018-09-14T01:17:22.074Z,9.70
2018-09-14T01:19:50.713Z,9.70
2018-09-14T01:22:19.069Z,9.60
2018-09-14T01:24:49.621Z,9.50
2018-09-14T01:27:17.963Z,9.50
2018-09-14T01:29:47.636Z,9.60
2018-09-14T01:32:25.875Z,9.40
2018-09-14T01:34:56.352Z,9.40
2018-09-14T01:37:29.955Z,9.30
2018-09-14T01:39:58.372Z,9.30
2018-09-14T01:42:27.051Z,9.30
2018-09-14T01:44:56.644Z,9.30
2018-09-14T01:47:25.065Z,9.30
2018-09-14T01:49:54.636Z,9.20
2018-09-14T01:52:23.045Z,9.20
2018-09-14T01:54:57.878Z,9.20
2018-09-14T01:57:28.384Z,9.20
2018-09-14T01:59:57.970Z,9.10
2018-09-14T02:02:26.358Z,9.10
2018-09-14T02:04:56.904Z,9.10
2018-09-14T02:07:26.496Z,9.10
2018-09-14T02:09:54.882Z,9.00
2018-09-14T02:12:23.210Z,9.00
2018-09-14T02:14:52.878Z,9.00
2018-09-14T02:17:33.243Z,8.90
2018-09-14T02:20:07.714Z,8.90
2018-09-14T02:22:47.802Z,8.90
2018-09-14T02:25:17.401Z,8.80
2018-09-14T02:28:03.287Z,8.70
2018-09-14T02:30:37.516Z,8.60
2018-09-14T02:33:12.342Z,8.70
2018-09-14T02:35:46.841Z,8.70
2018-09-14T02:38:21.974Z,8.60
2018-09-14T02:41:02.669Z,8.70
2018-09-14T02:43:35.128Z,8.70
2018-09-14T02:46:05.598Z,8.70
2018-09-14T02:48:38.645Z,8.60
2018-09-14T02:51:07.262Z,8.50
2018-09-14T02:53:39.677Z,8.60
2018-09-14T02:56:08.282Z,8.60
2018-09-14T02:58:41.337Z,8.60
2018-09-14T03:01:19.800Z,8.50
2018-09-14T03:04:05.706Z,8.50
2018-09-14T03:06:39.936Z,8.40
2018-09-14T03:09:19.376Z,8.40
2018-09-14T03:11:47.750Z,8.40
2018-09-14T03:14:17.407Z,8.40
2018-09-14T03:16:46.099Z,8.50
2018-09-14T03:19:16.667Z,8.50
2018-09-14T03:21:45.265Z,8.40
2018-09-14T03:24:13.645Z,8.30
2018-09-14T03:26:45.431Z,8.30
2018-09-14T03:29:21.609Z,8.30
2018-09-14T03:32:02.464Z,8.20
2018-09-14T03:34:36.760Z,8.20
2018-09-14T03:37:11.311Z,8.20
2018-09-14T03:39:44.141Z,8.20
2018-09-14T03:42:13.843Z,8.20
2018-09-14T03:45:05.213Z,8.10
2018-09-14T03:47:35.798Z,8.00
2018-09-14T03:50:07.507Z,7.90
2018-09-14T03:52:37.115Z,7.90
2018-09-14T03:55:05.925Z,7.90
2018-09-14T03:57:47.084Z,8.00
2018-09-14T04:00:20.754Z,8.00
2018-09-14T04:02:52.801Z,8.00
2018-09-14T04:08:31.242Z,7.90
2018-09-14T04:11:11.946Z,7.80
2018-09-14T04:16:51.082Z,7.80
2018-09-14T04:19:35.763Z,7.80
2018-09-14T04:22:04.154Z,7.80
2018-09-14T04:24:44.843Z,7.70
2018-09-14T04:27:24.242Z,7.80
2018-09-14T04:29:54.783Z,7.70
2018-09-14T04:32:24.376Z,7.60
2018-09-14T04:34:53.553Z,7.60
2018-09-14T04:37:29.140Z,7.60
2018-09-14T04:40:04.013Z,7.50
2018-09-14T04:42:38.210Z,7.50
2018-09-14T04:45:09.926Z,7.60
2018-09-14T04:47:49.100Z,7.60
2018-09-14T04:50:18.719Z,7.60
2018-09-14T04:52:47.364Z,7.60
2018-09-14T04:55:30.497Z,7.60
2018-09-14T04:58:02.260Z,7.50
2018-09-14T05:00:32.836Z,7.40
2018-09-14T05:03:03.356Z,7.40
2018-09-14T05:05:33.842Z,7.40
2018-09-14T05:08:03.460Z,7.40
2018-09-14T05:10:36.826Z,7.40
2018-09-14T05:13:08.613Z,7.40
2018-09-14T05:15:43.986Z,7.40
2018-09-14T05:18:33.263Z,7.40
2018-09-14T05:23:56.224Z,7.50
2018-09-14T05:26:26.600Z,7.50
2018-09-14T05:28:56.357Z,7.40
2018-09-14T05:31:26.880Z,7.50
2018-09-14T05:33:58.556Z,7.50
2018-09-14T05:36:30.282Z,7.50
2018-09-14T05:38:58.674Z,7.60
2018-09-14T05:41:30.820Z,7.60
2018-09-14T05:44:00.779Z,7.60
2018-09-14T05:46:37.657Z,7.60
2018-09-14T05:49:22.594Z,7.60
2018-09-14T05:51:51.010Z,7.50
2018-09-14T05:54:21.603Z,7.50
2018-09-14T05:57:01.841Z,7.60
2018-09-14T05:59:46.590Z,7.60
2018-09-14T06:02:20.718Z,7.70
2018-09-14T06:04:53.304Z,7.80
2018-09-14T06:07:25.044Z,7.80
2018-09-14T06:09:58.862Z,7.80
2018-09-14T06:12:29.372Z,7.90
2018-09-14T06:14:59.116Z,8.00
2018-09-14T06:17:28.694Z,8.10
2018-09-14T06:20:20.912Z,8.30
2018-09-14T06:22:49.778Z,8.40
2018-09-14T06:25:21.433Z,8.40
2018-09-14T06:27:50.088Z,8.40
2018-09-14T06:30:19.011Z,8.50
2018-09-14T06:32:47.829Z,8.60
2018-09-14T06:35:22.309Z,8.70
2018-09-14T06:38:02.031Z,8.90
2018-09-14T06:40:30.971Z,9.00
2018-09-14T06:43:00.698Z,9.00
2018-09-14T06:45:34.893Z,9.10
2018-09-14T06:48:09.049Z,9.20
2018-09-14T06:50:44.548Z,9.30
2018-09-14T06:53:13.295Z,9.40
2018-09-14T06:55:42.901Z,9.50
2018-09-14T06:58:11.368Z,9.60
2018-09-14T07:00:39.816Z,9.70
2018-09-14T07:03:08.227Z,9.80
2018-09-14T07:05:36.631Z,9.90
2018-09-14T07:08:05.035Z,10.00
2018-09-14T07:10:33.405Z,10.20
2018-09-14T07:13:01.801Z,10.30
2018-09-14T07:15:30.193Z,10.40
2018-09-14T07:17:58.595Z,10.60
2018-09-14T07:20:27.074Z,10.70
2018-09-14T07:22:55.466Z,10.90
2018-09-14T07:25:23.817Z,11.00
2018-09-14T07:27:52.320Z,11.20
2018-09-14T07:30:20.805Z,11.40
2018-09-14T07:32:52.417Z,11.50
2018-09-14T07:35:20.823Z,11.60
2018-09-14T07:37:49.192Z,11.70
2018-09-14T07:40:17.612Z,11.80
2018-09-14T07:42:45.986Z,12.00
2018-09-14T07:45:14.354Z,12.10
2018-09-14T07:47:44.052Z,12.30
2018-09-14T07:50:12.426Z,12.40
2018-09-14T07:52:40.788Z,12.50
2018-09-14T07:55:09.192Z,12.70
2018-09-14T07:57:37.557Z,12.80
2018-09-14T08:00:06.327Z,12.90
2018-09-14T08:02:34.714Z,13.00
2018-09-14T08:05:03.082Z,13.10
2018-09-14T08:07:31.474Z,13.30
2018-09-14T08:09:59.856Z,13.30
2018-09-14T08:12:28.243Z,13.50
2018-09-14T08:14:56.743Z,13.60
2018-09-14T08:17:25.123Z,13.70
2018-09-14T08:19:53.505Z,13.80
2018-09-14T08:22:21.911Z,13.80
2018-09-14T08:24:50.345Z,13.90
2018-09-14T08:27:19.132Z,14.00
2018-09-14T08:29:47.729Z,14.00
2018-09-14T08:32:16.233Z,14.20
2018-09-14T08:34:44.578Z,14.30
2018-09-14T08:37:13.075Z,14.40
2018-09-14T08:39:41.489Z,14.50
2018-09-14T08:42:09.872Z,14.60
2018-09-14T08:44:38.313Z,14.70
2018-09-14T08:47:06.658Z,14.80
2018-09-14T08:49:35.013Z,14.90
2018-09-14T08:52:03.759Z,15.00
2018-09-14T08:54:45.604Z,15.10
2018-09-14T08:57:18.293Z,15.30
2018-09-14T08:59:53.719Z,15.50
2018-09-14T09:02:41.770Z,15.60
2018-09-14T09:05:28.005Z,15.70
2018-09-14T09:07:59.696Z,15.90
2018-09-14T09:10:41.283Z,15.90
2018-09-14T09:13:10.900Z,16.10
2018-09-14T09:15:39.307Z,16.20
2018-09-14T09:18:13.492Z,16.30
2018-09-14T09:20:42.839Z,16.40
2018-09-14T09:23:24.774Z,16.50
2018-09-14T09:25:53.144Z,16.50
2018-09-14T09:28:21.485Z,16.60
2018-09-14T09:30:50.894Z,16.60
2018-09-14T09:33:19.258Z,16.60
2018-09-14T09:35:47.858Z,16.60
2018-09-14T09:38:17.432Z,16.70
2018-09-14T09:40:51.380Z,16.80
2018-09-14T09:43:24.993Z,16.90
2018-09-14T09:46:05.026Z,17.00
2018-09-14T09:48:37.372Z,17.00
2018-09-14T09:51:11.641Z,17.10
2018-09-14T09:53:42.250Z,17.10
2018-09-14T09:56:13.974Z,17.20
2018-09-14T09:58:42.724Z,17.20
2018-09-14T10:01:16.603Z,17.30
2018-09-14T10:03:49.578Z,17.40
2018-09-14T10:06:23.987Z,17.40
2018-09-14T10:08:52.753Z,17.40
2018-09-14T10:11:21.211Z,17.40
2018-09-14T10:13:49.744Z,17.50
2018-09-14T10:16:18.266Z,17.50
2018-09-14T10:18:46.798Z,17.40
2018-09-14T10:21:15.372Z,17.50
2018-09-14T10:23:43.756Z,17.60
2018-09-14T10:26:12.326Z,17.60
2018-09-14T10:28:40.983Z,17.70
2018-09-14T10:31:21.916Z,17.80
2018-09-14T10:33:50.492Z,17.80
2018-09-14T10:36:19.226Z,18.00
2018-09-14T10:38:52.257Z,18.00
2018-09-14T10:41:22.805Z,17.70
2018-09-14T10:43:52.451Z,17.50
2018-09-14T10:46:21.134Z,17.60
2018-09-14T10:48:49.856Z,17.80
2018-09-14T10:51:23.481Z,17.90
2018-09-14T10:53:52.159Z,17.80
2018-09-14T10:56:20.858Z,17.80
2018-09-14T10:58:51.370Z,18.00
2018-09-14T11:01:20.990Z,18.10
2018-09-14T11:03:53.042Z,18.30
2018-09-14T11:06:26.934Z,18.30
2018-09-14T11:08:55.596Z,18.30
2018-09-14T11:11:24.279Z,18.20
2018-09-14T11:13:53.079Z,18.30
2018-09-14T11:16:21.725Z,18.40
2018-09-14T11:18:50.449Z,18.50
2018-09-14T11:21:19.061Z,18.60
2018-09-14T11:24:05.806Z,18.80
2018-09-14T11:26:34.248Z,18.80
2018-09-14T11:29:04.816Z,18.90
2018-09-14T11:31:36.727Z,19.00
2018-09-14T11:34:05.249Z,19.10
2018-09-14T11:36:34.967Z,19.20
2018-09-14T11:39:08.900Z,19.40
2018-09-14T11:41:40.844Z,19.40
2018-09-14T11:44:19.396Z,19.50
2018-09-14T11:46:48.641Z,19.70
2018-09-14T11:49:17.315Z,19.80
2018-09-14T11:51:45.685Z,19.70
2018-09-14T11:54:14.229Z,19.60
2018-09-14T11:56:42.518Z,19.40
2018-09-14T11:59:11.416Z,19.20
2018-09-14T12:01:39.925Z,19.10
2018-09-14T12:04:10.440Z,19.10
2018-09-14T12:06:42.538Z,19.40
2018-09-14T12:09:17.225Z,19.60
2018-09-14T12:11:50.502Z,19.70
2018-09-14T12:14:18.880Z,19.80
2018-09-14T12:16:47.317Z,19.90
2018-09-14T12:19:16.934Z,19.90
2018-09-14T12:21:46.535Z,20.10
2018-09-14T12:24:18.593Z,20.10
2018-09-14T12:26:47.262Z,20.10
2018-09-14T12:29:16.938Z,19.80
2018-09-14T12:31:45.354Z,19.60
2018-09-14T12:34:20.831Z,19.50
2018-09-14T12:36:57.745Z,19.60
2018-09-14T12:39:32.135Z,19.70
2018-09-14T12:42:01.782Z,20.00
2018-09-14T12:47:43.440Z,20.00
2018-09-14T12:50:13.069Z,20.00
2018-09-14T12:52:41.690Z,20.00
2018-09-14T12:55:10.071Z,19.90
2018-09-14T12:57:39.814Z,19.70
2018-09-14T13:00:15.604Z,19.60
2018-09-14T13:02:48.808Z,19.80
2018-09-14T13:05:17.514Z,19.90
2018-09-14T13:07:53.880Z,20.00
2018-09-14T13:10:28.646Z,20.20
2018-09-14T13:13:00.748Z,20.20
2018-09-14T13:15:39.299Z,20.10
2018-09-14T13:18:07.997Z,20.10
2018-09-14T13:20:39.757Z,20.00
2018-09-14T13:23:12.705Z,19.90
2018-09-14T13:25:43.453Z,19.90
2018-09-14T13:28:14.477Z,20.10
2018-09-14T13:30:43.149Z,20.20
2018-09-14T13:33:14.016Z,20.30
2018-09-14T13:35:44.474Z,20.40
2018-09-14T13:38:24.765Z,20.60
2018-09-14T13:40:58.071Z,20.80
2018-09-14T13:43:31.653Z,20.90
2018-09-14T13:46:00.468Z,20.80
2018-09-14T13:48:29.269Z,20.70
2018-09-14T13:51:03.469Z,20.50
2018-09-14T13:53:36.171Z,20.40
2018-09-14T13:56:04.726Z,20.30
2018-09-14T13:58:33.383Z,20.10
2018-09-14T14:01:02.122Z,19.90
2018-09-14T14:03:30.737Z,19.80
2018-09-14T14:05:59.447Z,19.80
2018-09-14T14:08:28.239Z,19.70
2018-09-14T14:10:56.888Z,19.60
2018-09-14T14:13:25.705Z,19.60
2018-09-14T14:15:54.495Z,19.60
2018-09-14T14:18:23.051Z,19.60
2018-09-14T14:20:57.053Z,19.70
2018-09-14T14:23:25.678Z,19.70
2018-09-14T14:25:54.358Z,19.80
2018-09-14T14:28:24.905Z,19.70
2018-09-14T14:30:54.553Z,19.60
2018-09-14T14:33:24.211Z,19.40
2018-09-14T14:35:52.869Z,19.40
2018-09-14T14:38:22.470Z,19.30
2018-09-14T14:41:03.160Z,19.30
2018-09-14T14:43:32.964Z,19.40
2018-09-14T14:46:12.756Z,19.40
2018-09-14T14:48:48.256Z,19.50
2018-09-14T14:51:17.896Z,19.40
2018-09-14T14:53:52.356Z,19.50
2018-09-14T14:56:21.936Z,19.50
2018-09-14T14:58:50.626Z,19.50
2018-09-14T15:01:19.651Z,19.40
2018-09-14T15:03:49.340Z,19.30
2018-09-14T15:06:18.012Z,19.30
2018-09-14T15:08:50.365Z,19.30
2018-09-14T15:11:20.896Z,19.30
2018-09-14T15:13:57.531Z,19.20
2018-09-14T15:16:27.040Z,19.10
2018-09-14T15:18:57.632Z,18.90
2018-09-14T15:21:33.089Z,18.80
2018-09-14T15:24:02.679Z,18.70
2018-09-14T15:26:31.383Z,18.70
2018-09-14T15:29:09.769Z,18.70
2018-09-14T15:31:46.498Z,18.80
2018-09-14T15:34:20.816Z,18.90
2018-09-14T15:36:54.988Z,19.00
2018-09-14T15:39:29.203Z,19.00
2018-09-14T15:42:01.880Z,19.00
2018-09-14T15:44:31.481Z,18.90
2018-09-14T15:47:06.930Z,18.80
2018-09-14T15:49:40.849Z,18.80
2018-09-14T15:52:09.228Z,18.80
2018-09-14T15:54:37.634Z,18.70
2018-09-14T15:57:08.133Z,18.60
2018-09-14T15:59:36.543Z,18.50
2018-09-14T16:02:05.278Z,18.40
2018-09-14T16:04:33.955Z,18.40
2018-09-14T16:07:03.521Z,18.40
2018-09-14T16:09:32.247Z,18.40
2018-09-14T16:12:01.831Z,18.40
2018-09-14T16:14:30.523Z,18.50
2018-09-14T16:16:59.215Z,18.50
2018-09-14T16:19:38.710Z,18.50
2018-09-14T16:22:21.746Z,18.40
2018-09-14T16:25:07.626Z,18.40
2018-09-14T16:27:41.351Z,18.30
2018-09-14T16:30:14.321Z,18.30
2018-09-14T16:32:46.893Z,18.20
2018-09-14T16:35:17.565Z,18.30
2018-09-14T16:37:47.374Z,18.20
2018-09-14T16:43:08.742Z,18.10
2018-09-14T16:45:38.393Z,18.10
2018-09-14T16:48:07.059Z,18.10
2018-09-14T16:50:35.718Z,18.00
2018-09-14T16:53:04.405Z,18.10
2018-09-14T16:55:33.066Z,18.00
2018-09-14T16:58:14.340Z,18.00
2018-09-14T17:00:43.016Z,17.90
2018-09-14T17:03:23.390Z,17.90
2018-09-14T17:05:59.999Z,17.80
2018-09-14T17:08:28.549Z,17.80
2018-09-14T17:10:58.138Z,17.80
2018-09-14T17:13:27.719Z,17.80
2018-09-14T17:15:57.244Z,17.70
2018-09-14T17:18:25.914Z,17.70
2018-09-14T17:21:07.605Z,17.60
2018-09-14T17:23:36.602Z,17.60
2018-09-14T17:26:05.317Z,17.50
2018-09-14T17:28:35.829Z,17.40
2018-09-14T17:31:06.705Z,17.30
2018-09-14T17:33:39.496Z,17.20
2018-09-14T17:36:08.121Z,17.10
2018-09-14T17:38:46.522Z,17.10
2018-09-14T17:41:15.321Z,17.10
2018-09-14T17:43:43.998Z,17.10
2018-09-14T17:46:12.662Z,17.10
2018-09-14T17:48:45.269Z,17.10
2018-09-14T17:51:21.262Z,17.10
2018-09-14T17:53:53.798Z,17.00
2018-09-14T17:56:22.398Z,16.90
2018-09-14T17:58:51.994Z,16.80
2018-09-14T18:01:24.164Z,16.70
2018-09-14T18:03:52.784Z,16.70
2018-09-14T18:06:23.320Z,16.70
2018-09-14T18:08:55.373Z,16.70
2018-09-14T18:11:27.175Z,16.60
2018-09-14T18:13:55.742Z,16.60
2018-09-14T18:16:28.845Z,16.60
2018-09-14T18:18:57.496Z,16.60
2018-09-14T18:21:27.166Z,16.60
2018-09-14T18:23:58.010Z,16.60
2018-09-14T18:26:27.614Z,16.60
2018-09-14T18:29:09.724Z,16.70
2018-09-14T18:31:39.479Z,16.60
2018-09-14T18:34:12.367Z,16.60
2018-09-14T18:36:41.029Z,16.60
2018-09-14T18:39:11.428Z,16.60
2018-09-14T18:41:41.399Z,16.70
2018-09-14T18:44:11.174Z,16.70
2018-09-14T18:46:44.042Z,16.70
2018-09-14T18:49:13.176Z,16.70
2018-09-14T18:51:41.755Z,16.60
2018-09-14T18:54:11.215Z,16.50
2018-09-14T18:56:49.416Z,16.40
2018-09-14T18:59:25.840Z,16.30
2018-09-14T19:02:09.005Z,16.10
2018-09-14T19:04:41.096Z,16.00
2018-09-14T19:07:25.425Z,15.90
2018-09-14T19:10:01.803Z,15.70
2018-09-14T19:12:36.703Z,15.60
2018-09-14T19:15:16.359Z,15.40
2018-09-14T19:17:45.767Z,15.30
2018-09-14T19:20:19.276Z,15.20
2018-09-14T19:22:55.996Z,15.10
2018-09-14T19:25:25.631Z,15.00
2018-09-14T19:27:55.376Z,15.00
2018-09-14T19:30:24.044Z,14.90
2018-09-14T19:32:54.809Z,14.80
2018-09-14T19:35:23.701Z,14.70
2018-09-14T19:37:52.524Z,14.70
2018-09-14T19:40:22.174Z,14.60
2018-09-14T19:42:50.774Z,14.60
2018-09-14T19:45:19.489Z,14.50
2018-09-14T19:47:48.106Z,14.40
2018-09-14T19:50:26.351Z,14.30
2018-09-14T19:52:55.955Z,14.20
2018-09-14T19:55:24.677Z,14.10
2018-09-14T19:57:54.322Z,14.00
2018-09-14T20:00:22.970Z,14.00
2018-09-14T20:02:51.651Z,14.00
2018-09-14T20:05:20.336Z,13.90
2018-09-14T20:07:55.448Z,13.90
2018-09-14T20:10:31.251Z,13.90
2018-09-14T20:13:01.764Z,13.90
2018-09-14T20:15:35.088Z,13.90
2018-09-14T20:18:15.976Z,13.90
2018-09-14T20:20:46.552Z,13.90
2018-09-14T20:23:27.150Z,14.00
2018-09-14T20:26:02.920Z,14.00
2018-09-14T20:28:37.486Z,14.10
2018-09-14T20:31:08.016Z,14.10
2018-09-14T20:33:37.590Z,14.10
2018-09-14T20:36:06.261Z,14.10
2018-09-14T20:38:38.762Z,14.10
2018-09-14T20:41:10.712Z,14.20
2018-09-14T20:43:39.512Z,14.20
2018-09-14T20:46:08.190Z,14.20
2018-09-14T20:48:37.696Z,14.20
2018-09-14T20:51:06.536Z,14.20
2018-09-14T20:53:40.579Z,14.10
2018-09-14T20:56:12.344Z,14.00
2018-09-14T20:58:44.178Z,13.90
2018-09-14T21:01:13.728Z,13.80
2018-09-14T21:03:47.914Z,13.70
2018-09-14T21:06:22.417Z,13.60
2018-09-14T21:08:51.126Z,13.50
2018-09-14T21:11:25.090Z,13.50
2018-09-14T21:13:55.610Z,13.40
2018-09-14T21:16:24.291Z,13.30
2018-09-14T21:18:53.014Z,13.30
2018-09-14T21:21:21.738Z,13.20
2018-09-14T21:23:54.227Z,13.10
2018-09-14T21:26:24.089Z,13.10
2018-09-14T21:28:52.571Z,13.10
2018-09-14T21:31:22.223Z,13.00
2018-09-14T21:33:52.768Z,13.00
2018-09-14T21:36:21.583Z,13.00
2018-09-14T21:41:53.565Z,13.00
2018-09-14T21:44:27.120Z,12.90
2018-09-14T21:46:56.778Z,12.90
2018-09-14T21:49:25.509Z,12.90
2018-09-14T21:52:14.627Z,12.90
2018-09-14T21:54:44.374Z,12.90
2018-09-14T21:57:23.180Z,12.80
2018-09-14T21:59:58.122Z,12.80
2018-09-14T22:02:27.763Z,12.80
2018-09-14T22:04:58.726Z,12.80
2018-09-14T22:07:30.572Z,12.80
2018-09-14T22:10:00.611Z,12.80
2018-09-14T22:12:34.190Z,12.80
2018-09-14T22:15:07.076Z,12.90
2018-09-14T22:17:35.828Z,13.00
2018-09-14T22:20:05.297Z,13.10
2018-09-14T22:22:34.126Z,13.20
2018-09-14T22:25:03.774Z,13.20
2018-09-14T22:27:32.568Z,13.30
2018-09-14T22:30:02.507Z,13.30
2018-09-14T22:32:32.767Z,13.30
2018-09-14T22:35:03.528Z,13.30
2018-09-14T22:37:32.404Z,13.30
2018-09-14T22:40:02.580Z,13.30
2018-09-14T22:42:31.319Z,13.30
2018-09-14T22:44:59.904Z,13.30
2018-09-14T22:47:28.572Z,13.40
2018-09-14T22:50:04.500Z,13.40
2018-09-14T22:52:34.161Z,13.40
2018-09-14T22:55:04.742Z,13.50
2018-09-14T22:57:35.304Z,13.50
2018-09-14T23:00:27.547Z,13.60
2018-09-14T23:03:01.182Z,13.60
2018-09-14T23:05:35.034Z,13.70
2018-09-14T23:08:14.482Z,13.70
2018-09-14T23:10:47.751Z,13.70
2018-09-14T23:13:27.841Z,13.70
2018-09-14T23:16:00.103Z,13.70
2018-09-14T23:18:29.377Z,13.80
2018-09-14T23:20:58.272Z,13.80
2018-09-14T23:23:28.005Z,13.80
2018-09-14T23:26:04.840Z,13.80
2018-09-14T23:28:39.429Z,13.80
2018-09-14T23:31:13.926Z,13.90
2018-09-14T23:33:43.526Z,13.80
2018-09-14T23:36:12.242Z,13.80
2018-09-14T23:38:50.368Z,13.80
2018-09-14T23:41:19.027Z,13.90
2018-09-14T23:44:08.023Z,13.90
2018-09-14T23:47:00.365Z,13.90
2018-09-14T23:49:52.705Z,13.80
2018-09-14T23:52:25.479Z,13.80
2018-09-14T23:55:03.979Z,13.80
2018-09-14T23:57:43.671Z,13.80
